createdAt,value
2023-01-04T00:00:43.242Z,4.70
2023-01-04T00:03:44.935Z,4.71
2023-01-04T00:06:48.094Z,4.68
2023-01-04T00:09:49.768Z,4.65
2023-01-04T00:12:51.276Z,4.63
2023-01-04T00:15:52.899Z,4.66
2023-01-04T00:18:55.201Z,4.61
2023-01-04T00:21:58.429Z,4.63
2023-01-04T00:25:00.043Z,4.63
2023-01-04T00:28:01.642Z,4.61
2023-01-04T00:31:04.399Z,4.57
2023-01-04T00:34:06.918Z,4.58
2023-01-04T00:37:10.038Z,4.57
2023-01-04T00:40:12.188Z,4.57
2023-01-04T00:43:13.815Z,4.58
2023-01-04T00:46:15.592Z,4.58
2023-01-04T00:49:17.157Z,4.56
2023-01-04T00:52:20.058Z,4.59
2023-01-04T00:55:21.760Z,4.59
2023-01-04T00:58:23.361Z,4.58
2023-01-04T01:01:25.233Z,4.59
2023-01-04T01:04:27.029Z,4.58
2023-01-04T01:07:30.196Z,4.56
2023-01-04T01:10:34.264Z,4.56
2023-01-04T01:13:36.468Z,4.52
2023-01-04T01:16:54.428Z,4.51
2023-01-04T01:19:57.396Z,4.51
2023-01-04T01:23:00.319Z,4.53
2023-01-04T01:26:02.483Z,4.53
2023-01-04T01:29:04.190Z,4.58
2023-01-04T01:32:06.080Z,4.60
2023-01-04T01:35:07.898Z,4.62
2023-01-04T01:38:10.939Z,4.63
2023-01-04T01:41:17.358Z,4.67
2023-01-04T01:44:37.904Z,4.70
2023-01-04T01:47:41.888Z,4.75
2023-01-04T01:50:47.157Z,4.74
2023-01-04T01:53:54.842Z,4.75
2023-01-04T01:56:58.171Z,4.78
2023-01-04T02:00:02.264Z,4.78
2023-01-04T02:03:18.459Z,4.79
2023-01-04T02:06:24.080Z,4.83
2023-01-04T02:09:27.238Z,4.87
2023-01-04T02:12:29.383Z,4.88
2023-01-04T02:15:35.849Z,4.94
2023-01-04T02:18:40.511Z,4.97
2023-01-04T02:21:47.816Z,4.94
2023-01-04T02:25:03.009Z,4.95
2023-01-04T02:28:09.780Z,4.94
2023-01-04T02:31:25.272Z,4.90
2023-01-04T02:34:32.319Z,4.85
2023-01-04T02:37:38.688Z,4.84
2023-01-04T02:40:44.168Z,4.84
2023-01-04T02:44:08.947Z,4.88
2023-01-04T02:47:14.328Z,4.93
2023-01-04T02:50:33.604Z,5.01
2023-01-04T02:53:36.648Z,5.09
2023-01-04T02:56:45.823Z,5.13
2023-01-04T03:00:08.416Z,5.21
2023-01-04T03:03:36.113Z,5.16
2023-01-04T03:06:41.112Z,5.15
2023-01-04T03:09:45.775Z,5.10
2023-01-04T03:12:50.705Z,5.08
2023-01-04T03:15:54.085Z,5.07
2023-01-04T03:18:58.497Z,5.04
2023-01-04T03:22:00.428Z,5.03
2023-01-04T03:25:21.765Z,5.01
2023-01-04T03:28:43.618Z,5.02
2023-01-04T03:32:07.099Z,5.03
2023-01-04T03:35:28.100Z,5.01
2023-01-04T03:38:52.514Z,4.99
2023-01-04T03:42:17.512Z,4.97
2023-01-04T03:45:41.261Z,4.98
2023-01-04T03:48:46.239Z,4.97
2023-01-04T03:51:51.060Z,4.98
2023-01-04T03:54:53.941Z,4.98
2023-01-04T03:57:56.441Z,4.97
2023-01-04T04:01:03.947Z,4.96
2023-01-04T04:04:24.460Z,4.98
2023-01-04T04:07:46.186Z,4.98
2023-01-04T04:10:47.829Z,5.00
2023-01-04T04:13:50.015Z,5.01
2023-01-04T04:16:51.850Z,5.01
2023-01-04T04:19:53.459Z,5.03
2023-01-04T04:22:56.457Z,5.03
2023-01-04T04:25:58.104Z,5.04
2023-01-04T04:28:59.830Z,5.01
2023-01-04T04:32:01.529Z,5.04
2023-01-04T04:35:03.409Z,5.04
2023-01-04T04:38:06.626Z,5.03
2023-01-04T04:41:28.438Z,5.05
2023-01-04T04:44:30.140Z,5.08
2023-01-04T04:47:31.681Z,5.08
2023-01-04T04:50:33.246Z,5.08
2023-01-04T04:53:36.211Z,5.10
2023-01-04T04:56:37.868Z,5.09
2023-01-04T04:59:39.557Z,5.09
2023-01-04T05:02:41.368Z,5.10
2023-01-04T05:05:43.072Z,5.10
2023-01-04T05:08:46.378Z,5.11
2023-01-04T05:12:06.829Z,5.12
2023-01-04T05:15:08.779Z,5.13
2023-01-04T05:18:11.312Z,5.14
2023-01-04T05:21:16.886Z,5.18
2023-01-04T05:24:22.838Z,5.18
2023-01-04T05:27:24.391Z,5.17
2023-01-04T05:30:44.623Z,5.18
2023-01-04T05:33:46.234Z,5.20
2023-01-04T05:36:47.868Z,5.22
2023-01-04T05:39:50.743Z,5.23
2023-01-04T05:42:52.490Z,5.26
2023-01-04T05:45:55.716Z,5.26
2023-01-04T05:48:57.558Z,5.28
2023-01-04T05:51:59.191Z,5.28
2023-01-04T05:55:02.102Z,5.28
2023-01-04T05:58:03.796Z,5.32
2023-01-04T06:01:07.701Z,5.32
2023-01-04T06:04:09.463Z,5.32
2023-01-04T06:07:11.398Z,5.32
2023-01-04T06:10:14.701Z,5.32
2023-01-04T06:13:16.195Z,5.35
2023-01-04T06:16:17.835Z,5.34
2023-01-04T06:19:19.436Z,5.34
2023-01-04T06:22:21.193Z,5.35
2023-01-04T06:25:24.114Z,5.38
2023-01-04T06:28:25.790Z,5.40
2023-01-04T06:31:27.537Z,5.47
2023-01-04T06:34:31.449Z,5.55
2023-01-04T06:37:33.236Z,5.59
2023-01-04T06:40:36.262Z,5.63
2023-01-04T06:43:37.804Z,5.71
2023-01-04T06:46:41.333Z,5.78
2023-01-04T06:49:43.010Z,5.83
2023-01-04T06:52:44.681Z,5.95
2023-01-04T06:55:47.751Z,5.97
2023-01-04T06:58:49.317Z,6.02
2023-01-04T07:01:51.013Z,6.07
2023-01-04T07:04:52.718Z,6.18
2023-01-04T07:07:54.408Z,6.22
2023-01-04T07:10:57.548Z,6.31
2023-01-04T07:13:59.295Z,6.31
2023-01-04T07:17:00.833Z,6.31
2023-01-04T07:20:04.043Z,6.31
2023-01-04T07:23:05.893Z,6.34
2023-01-04T07:26:09.165Z,6.34
2023-01-04T07:29:17.161Z,6.34
2023-01-04T07:32:18.930Z,6.36
2023-01-04T07:35:21.029Z,6.36
2023-01-04T07:38:23.506Z,6.36
2023-01-04T07:41:26.525Z,6.37
2023-01-04T07:44:28.507Z,6.39
2023-01-04T07:47:30.171Z,6.43
2023-01-04T07:50:32.143Z,6.46
2023-01-04T07:53:34.080Z,6.50
2023-01-04T07:56:37.231Z,6.56
2023-01-04T07:59:39.001Z,6.63
2023-01-04T08:02:40.644Z,6.65
2023-01-04T08:05:42.563Z,6.80
2023-01-04T08:08:44.699Z,6.91
2023-01-04T08:11:47.736Z,7.02
2023-01-04T08:14:49.697Z,7.16
2023-01-04T08:17:51.358Z,7.24
2023-01-04T08:21:01.383Z,7.25
2023-01-04T08:24:03.117Z,7.30
2023-01-04T08:27:07.922Z,7.36
2023-01-04T08:30:09.948Z,7.39
2023-01-04T08:33:14.849Z,7.42
2023-01-04T08:36:24.242Z,7.46
2023-01-04T08:39:29.699Z,7.46
2023-01-04T08:42:32.626Z,7.44
2023-01-04T08:45:34.255Z,7.49
2023-01-04T08:48:36.177Z,7.54
2023-01-04T08:51:37.880Z,7.54
2023-01-04T08:54:39.409Z,7.54
2023-01-04T08:57:42.363Z,7.54
2023-01-04T09:00:44.101Z,7.59
2023-01-04T09:03:46.179Z,7.60
2023-01-04T09:06:47.908Z,7.63
2023-01-04T09:09:49.483Z,7.69
2023-01-04T09:12:52.428Z,7.72
2023-01-04T09:15:53.995Z,7.75
2023-01-04T09:18:56.334Z,7.77
2023-01-04T09:21:58.526Z,7.82
2023-01-04T09:25:00.308Z,7.85
2023-01-04T09:28:03.368Z,7.95
2023-01-04T09:31:05.731Z,7.98
2023-01-04T09:34:17.070Z,8.03
2023-01-04T09:37:19.201Z,8.06
2023-01-04T09:40:22.999Z,8.07
2023-01-04T09:43:36.413Z,8.07
2023-01-04T09:46:40.905Z,8.09
2023-01-04T09:49:45.314Z,8.03
2023-01-04T09:52:51.765Z,8.03
2023-01-04T09:55:55.978Z,8.02
2023-01-04T09:59:00.325Z,7.97
2023-01-04T10:02:04.268Z,7.98
2023-01-04T10:05:07.013Z,7.97
2023-01-04T10:08:13.943Z,8.00
2023-01-04T10:11:22.476Z,8.03
2023-01-04T10:14:34.815Z,8.03
2023-01-04T10:18:52.022Z,8.08
2023-01-04T10:21:32.063Z,8.11
2023-01-04T10:24:41.554Z,8.13
2023-01-04T10:27:48.337Z,8.07
2023-01-04T10:30:55.048Z,8.06
2023-01-04T10:34:00.002Z,8.06
2023-01-04T10:37:05.164Z,8.05
2023-01-04T10:40:13.172Z,8.02
2023-01-04T10:43:19.237Z,8.02
2023-01-04T10:46:25.400Z,7.97
2023-01-04T10:49:29.683Z,8.02
2023-01-04T10:52:33.337Z,8.02
2023-01-04T10:55:39.393Z,8.05
2023-01-04T10:58:44.144Z,8.04
2023-01-04T11:01:50.746Z,8.03
2023-01-04T11:04:55.495Z,8.03
2023-01-04T11:08:00.120Z,8.05
2023-01-04T11:11:04.392Z,8.09
2023-01-04T11:14:06.224Z,8.12
2023-01-04T11:17:10.472Z,8.11
2023-01-04T11:20:12.260Z,8.12
2023-01-04T11:23:14.735Z,8.18
2023-01-04T11:26:19.147Z,8.16
2023-01-04T11:29:27.179Z,8.17
2023-01-04T11:32:34.417Z,8.18
2023-01-04T11:35:42.177Z,8.22
2023-01-04T11:38:55.095Z,8.23
2023-01-04T11:42:02.578Z,8.25
2023-01-04T11:45:05.647Z,8.26
2023-01-04T11:48:15.089Z,8.31
2023-01-04T11:51:18.852Z,8.30
2023-01-04T11:54:20.532Z,8.30
2023-01-04T11:57:22.142Z,8.33
2023-01-04T12:00:24.131Z,8.34
2023-01-04T12:03:28.455Z,8.39
2023-01-04T12:06:36.607Z,8.40
2023-01-04T12:09:38.198Z,8.40
2023-01-04T12:12:39.861Z,8.42
2023-01-04T12:15:47.173Z,8.45
2023-01-04T12:18:50.451Z,8.43
2023-01-04T12:21:53.711Z,8.42
2023-01-04T12:25:00.549Z,8.40
2023-01-04T12:28:02.684Z,8.42
2023-01-04T12:34:39.655Z,8.49
2023-01-04T12:37:49.290Z,8.47
2023-01-04T12:40:55.268Z,8.47
2023-01-04T12:43:56.786Z,8.49
2023-01-04T12:50:20.325Z,8.53
2023-01-04T12:53:36.736Z,8.57
2023-01-04T12:56:57.101Z,8.58
2023-01-04T13:00:01.478Z,8.60
2023-01-04T13:03:21.810Z,8.61
2023-01-04T13:06:24.035Z,8.64
2023-01-04T13:09:27.164Z,8.66
2023-01-04T13:12:52.989Z,8.68
2023-01-04T13:16:01.755Z,8.71
2023-01-04T13:19:04.256Z,8.74
2023-01-04T13:22:10.431Z,8.74
2023-01-04T13:25:13.508Z,8.75
2023-01-04T13:28:17.320Z,8.75
2023-01-04T13:31:20.714Z,8.78
2023-01-04T13:34:24.423Z,8.80
2023-01-04T13:37:27.762Z,8.83
2023-01-04T13:40:32.620Z,8.81
2023-01-04T13:43:45.295Z,8.84
2023-01-04T13:46:53.734Z,8.85
2023-01-04T13:49:55.514Z,8.85
2023-01-04T13:53:06.779Z,8.87
2023-01-04T13:56:17.216Z,8.93
2023-01-04T13:59:20.498Z,8.93
2023-01-04T14:02:23.733Z,8.97
2023-01-04T14:05:25.426Z,8.99
2023-01-04T14:08:30.562Z,8.97
2023-01-04T14:11:51.827Z,9.03
2023-01-04T14:15:03.870Z,9.08
2023-01-04T14:18:24.041Z,9.08
2023-01-04T14:21:33.658Z,9.09
2023-01-04T14:28:12.740Z,9.24
2023-01-04T14:31:19.936Z,9.22
2023-01-04T14:34:23.023Z,9.26
2023-01-04T14:37:25.010Z,9.29
2023-01-04T14:40:27.490Z,9.30
2023-01-04T14:43:32.428Z,9.36
2023-01-04T14:46:34.280Z,9.37
2023-01-04T14:49:37.339Z,9.43
2023-01-04T14:52:39.082Z,9.51
2023-01-04T14:55:40.634Z,9.59
2023-01-04T14:58:42.842Z,9.63
2023-01-04T15:01:44.805Z,9.65
2023-01-04T15:04:47.862Z,9.68
2023-01-04T15:07:49.657Z,9.80
2023-01-04T15:10:57.902Z,9.82
2023-01-04T15:14:01.648Z,9.81
2023-01-04T15:17:03.236Z,9.83
2023-01-04T15:20:07.077Z,9.92
2023-01-04T15:23:08.984Z,9.91
2023-01-04T15:26:11.710Z,9.94
2023-01-04T15:29:13.423Z,9.93
2023-01-04T15:32:15.053Z,9.95
2023-01-04T15:35:18.132Z,10.01
2023-01-04T15:38:19.745Z,10.03
2023-01-04T15:41:40.107Z,10.00
2023-01-04T15:44:42.832Z,10.03
2023-01-04T15:47:44.334Z,10.01
2023-01-04T15:50:47.289Z,10.06
2023-01-04T15:53:50.127Z,10.05
2023-01-04T15:56:51.789Z,10.05
2023-01-04T15:59:53.554Z,10.06
2023-01-04T16:02:56.505Z,10.07
2023-01-04T16:06:03.513Z,10.10
2023-01-04T16:09:05.617Z,10.11
2023-01-04T16:12:26.267Z,10.12
2023-01-04T16:15:27.939Z,10.18
2023-01-04T16:18:32.480Z,10.15
2023-01-04T16:21:35.724Z,10.15
2023-01-04T16:25:09.458Z,10.15
2023-01-04T16:27:58.766Z,10.12
2023-01-04T16:31:00.732Z,10.16
2023-01-04T16:34:02.510Z,10.17
2023-01-04T16:37:05.584Z,10.20
2023-01-04T16:40:08.989Z,10.14
2023-01-04T16:43:11.058Z,10.15
2023-01-04T16:46:20.707Z,10.16
2023-01-04T16:49:22.327Z,10.24
2023-01-04T16:52:27.364Z,10.18
2023-01-04T16:55:29.096Z,10.19
2023-01-04T16:58:30.840Z,10.27
2023-01-04T17:01:33.415Z,10.23
2023-01-04T17:04:35.256Z,10.18
2023-01-04T17:07:38.221Z,10.21
2023-01-04T17:10:39.835Z,10.19
2023-01-04T17:13:41.484Z,10.19
2023-01-04T17:16:43.993Z,10.20
2023-01-04T17:19:45.673Z,10.20
2023-01-04T17:22:50.081Z,10.27
2023-01-04T17:25:51.719Z,10.22
2023-01-04T17:28:53.319Z,10.18
2023-01-04T17:31:55.076Z,10.20
2023-01-04T17:34:58.207Z,10.21
2023-01-04T17:38:01.299Z,10.20
2023-01-04T17:41:06.505Z,10.20
2023-01-04T17:44:08.174Z,10.18
2023-01-04T17:47:09.781Z,10.18
2023-01-04T17:50:11.356Z,10.22
2023-01-04T17:53:14.439Z,10.17
2023-01-04T17:56:17.577Z,10.17
2023-01-04T17:59:19.250Z,10.18
2023-01-04T18:02:20.885Z,10.22
2023-01-04T18:05:22.583Z,10.21
2023-01-04T18:08:25.496Z,10.23
2023-01-04T18:11:27.499Z,10.22
2023-01-04T18:14:29.200Z,10.16
2023-01-04T18:17:30.855Z,10.14
2023-01-04T18:20:32.435Z,10.17
2023-01-04T18:23:35.461Z,10.19
2023-01-04T18:27:10.831Z,10.17
2023-01-04T18:29:58.690Z,10.20
2023-01-04T18:33:00.372Z,10.19
2023-01-04T18:36:02.338Z,10.20
2023-01-04T18:39:05.302Z,10.18
2023-01-04T18:42:06.970Z,10.14
2023-01-04T18:45:08.999Z,10.12
2023-01-04T18:48:10.569Z,10.10
2023-01-04T18:51:12.912Z,10.07
2023-01-04T18:54:20.984Z,10.01
2023-01-04T18:57:22.506Z,9.98
2023-01-04T19:00:29.977Z,9.96
2023-01-04T19:03:32.804Z,9.97
2023-01-04T19:06:34.491Z,9.98
2023-01-04T19:09:37.612Z,10.04
2023-01-04T19:12:39.258Z,10.06
2023-01-04T19:15:47.392Z,10.03
2023-01-04T19:18:49.311Z,9.90
2023-01-04T19:21:51.074Z,9.84
2023-01-04T19:24:54.080Z,9.77
2023-01-04T19:27:55.845Z,9.73
2023-01-04T19:30:57.652Z,9.75
2023-01-04T19:33:59.261Z,9.73
2023-01-04T19:37:01.009Z,9.77
2023-01-04T19:40:04.562Z,9.85
2023-01-04T19:43:06.565Z,9.85
2023-01-04T19:46:09.088Z,9.88
2023-01-04T19:49:15.130Z,9.90
2023-01-04T19:52:17.264Z,9.92
2023-01-04T19:55:20.272Z,9.91
2023-01-04T19:58:21.943Z,10.00
2023-01-04T20:01:23.913Z,10.04
2023-01-04T20:04:27.978Z,10.06
2023-01-04T20:07:29.604Z,10.02
2023-01-04T20:10:32.642Z,10.02
2023-01-04T20:13:34.270Z,10.03
2023-01-04T20:16:35.960Z,10.02
2023-01-04T20:19:37.581Z,9.99
2023-01-04T20:22:39.080Z,10.01
2023-01-04T20:25:42.746Z,9.97
2023-01-04T20:28:46.035Z,9.99
2023-01-04T20:31:47.749Z,9.96
2023-01-04T20:34:49.447Z,9.95
2023-01-04T20:37:54.579Z,9.94
2023-01-04T20:41:01.395Z,9.96
2023-01-04T20:44:03.411Z,9.96
2023-01-04T20:47:05.249Z,9.92
2023-01-04T20:50:09.434Z,9.93
2023-01-04T20:53:11.627Z,9.88
2023-01-04T20:56:15.822Z,9.76
2023-01-04T20:59:20.107Z,9.75
2023-01-04T21:02:21.900Z,9.72
2023-01-04T21:05:25.658Z,9.67
2023-01-04T21:08:27.253Z,9.51
2023-01-04T21:11:30.321Z,9.37
2023-01-04T21:14:33.479Z,9.20
2023-01-04T21:17:35.033Z,9.10
2023-01-04T21:20:38.787Z,9.07
2023-01-04T21:23:41.024Z,9.14
2023-01-04T21:26:44.079Z,9.11
2023-01-04T21:29:45.662Z,9.18
2023-01-04T21:32:47.457Z,9.25
2023-01-04T21:35:49.012Z,9.27
2023-01-04T21:38:51.103Z,9.25
2023-01-04T21:41:54.264Z,9.29
2023-01-04T21:44:55.747Z,9.28
2023-01-04T21:47:58.111Z,9.30
2023-01-04T21:50:59.734Z,9.29
2023-01-04T21:54:01.825Z,9.32
2023-01-04T21:57:04.893Z,9.26
2023-01-04T22:00:07.102Z,9.29
2023-01-04T22:03:08.933Z,9.36
2023-01-04T22:06:12.431Z,9.33
2023-01-04T22:09:14.012Z,9.30
2023-01-04T22:12:17.037Z,9.31
2023-01-04T22:15:18.589Z,9.32
2023-01-04T22:18:20.267Z,9.34
2023-01-04T22:21:25.218Z,9.31
2023-01-04T22:24:26.846Z,9.34
2023-01-04T22:27:29.942Z,9.36
2023-01-04T22:30:31.727Z,9.36
2023-01-04T22:33:33.506Z,9.37
2023-01-04T22:36:35.110Z,9.37
2023-01-04T22:39:36.774Z,9.35
2023-01-04T22:42:40.063Z,9.26
2023-01-04T22:45:41.599Z,9.15
2023-01-04T22:48:43.378Z,9.09
2023-01-04T22:51:45.323Z,9.07
2023-01-04T22:54:47.328Z,9.02
2023-01-04T22:57:50.391Z,9.04
2023-01-04T23:00:52.098Z,9.10
2023-01-04T23:03:55.188Z,8.97
2023-01-04T23:06:57.027Z,8.79
2023-01-04T23:09:58.660Z,8.70
2023-01-04T23:13:01.675Z,8.67
2023-01-04T23:16:05.343Z,8.62
2023-01-04T23:19:07.433Z,8.62
2023-01-04T23:22:09.173Z,8.60
2023-01-04T23:25:11.247Z,8.59
2023-01-04T23:28:14.128Z,8.62
2023-01-04T23:31:17.495Z,8.62
2023-01-04T23:34:19.093Z,8.61
2023-01-04T23:37:20.786Z,8.60
2023-01-04T23:40:22.355Z,8.61
2023-01-04T23:43:25.321Z,8.71
2023-01-04T23:46:26.837Z,8.71
2023-01-04T23:49:29.669Z,8.68
2023-01-04T23:52:31.200Z,8.75
2023-01-04T23:55:32.759Z,8.68
2023-01-04T23:58:35.692Z,8.67
